sensor_id;sensor_type;location;lat;lon;timestamp;P1;durP1;ratioP1;P2;durP2;ratioP2
26478;SDS011;14163;-26.142;27.992;2022-12-08T00:13:43;9.70;;;8.10;;
26478;SDS011;14163;-26.142;27.992;2022-12-08T00:16:12;8.33;;;7.50;;
26478;SDS011;14163;-26.142;27.992;2022-12-08T00:18:41;7.30;;;6.60;;
26478;SDS011;14163;-26.142;27.992;2022-12-08T00:21:10;7.53;;;6.70;;
26478;SDS011;14163;-26.142;27.992;2022-12-08T00:23:39;8.10;;;7.30;;
26478;SDS011;14163;-26.142;27.992;2022-12-08T00:26:08;7.67;;;6.87;;
26478;SDS011;14163;-26.142;27.992;2022-12-08T00:28:37;7.80;;;7.10;;
26478;SDS011;14163;-26.142;27.992;2022-12-08T00:31:08;7.13;;;6.47;;
26478;SDS011;14163;-26.142;27.992;2022-12-08T00:33:38;6.70;;;6.20;;
26478;SDS011;14163;-26.142;27.992;2022-12-08T00:36:07;7.13;;;6.53;;
26478;SDS011;14163;-26.142;27.992;2022-12-08T00:38:38;7.10;;;6.60;;
26478;SDS011;14163;-26.142;27.992;2022-12-08T00:41:11;8.43;;;7.53;;
26478;SDS011;14163;-26.142;27.992;2022-12-08T00:43:42;7.60;;;6.80;;
26478;SDS011;14163;-26.142;27.992;2022-12-08T00:46:13;7.60;;;6.80;;
26478;SDS011;14163;-26.142;27.992;2022-12-08T00:48:42;8.00;;;6.30;;
26478;SDS011;14163;-26.142;27.992;2022-12-08T00:51:11;6.90;;;5.93;;
26478;SDS011;14163;-26.142;27.992;2022-12-08T00:53:40;6.77;;;6.17;;
26478;SDS011;14163;-26.142;27.992;2022-12-08T00:56:09;6.93;;;6.33;;
26478;SDS011;14163;-26.142;27.992;2022-12-08T00:58:38;6.10;;;5.70;;
26478;SDS011;14163;-26.142;27.992;2022-12-08T01:01:09;6.47;;;5.87;;
26478;SDS011;14163;-26.142;27.992;2022-12-08T01:03:40;6.20;;;5.50;;
26478;SDS011;14163;-26.142;27.992;2022-12-08T01:06:10;5.60;;;5.20;;
26478;SDS011;14163;-26.142;27.992;2022-12-08T01:08:39;5.53;;;5.13;;
26478;SDS011;14163;-26.142;27.992;2022-12-08T01:11:09;6.77;;;6.20;;
26478;SDS011;14163;-26.142;27.992;2022-12-08T01:13:39;6.30;;;5.70;;
26478;SDS011;14163;-26.142;27.992;2022-12-08T01:16:08;7.27;;;5.60;;
26478;SDS011;14163;-26.142;27.992;2022-12-08T01:18:46;5.93;;;5.43;;
26478;SDS011;14163;-26.142;27.992;2022-12-08T01:21:16;6.53;;;5.73;;
26478;SDS011;14163;-26.142;27.992;2022-12-08T01:23:45;5.67;;;5.17;;
26478;SDS011;14163;-26.142;27.992;2022-12-08T01:26:15;5.63;;;5.10;;
26478;SDS011;14163;-26.142;27.992;2022-12-08T01:28:45;5.47;;;4.97;;
26478;SDS011;14163;-26.142;27.992;2022-12-08T01:31:15;5.43;;;4.93;;
26478;SDS011;14163;-26.142;27.992;2022-12-08T01:33:47;5.93;;;5.33;;
26478;SDS011;14163;-26.142;27.992;2022-12-08T01:36:19;6.20;;;5.60;;
26478;SDS011;14163;-26.142;27.992;2022-12-08T01:38:50;5.50;;;5.00;;
26478;SDS011;14163;-26.142;27.992;2022-12-08T01:41:21;5.20;;;4.80;;
26478;SDS011;14163;-26.142;27.992;2022-12-08T01:43:56;5.10;;;4.70;;
26478;SDS011;14163;-26.142;27.992;2022-12-08T01:46:26;4.83;;;4.47;;
26478;SDS011;14163;-26.142;27.992;2022-12-08T01:49:00;8.50;;;4.80;;
26478;SDS011;14163;-26.142;27.992;2022-12-08T01:51:34;4.63;;;4.30;;
26478;SDS011;14163;-26.142;27.992;2022-12-08T01:54:07;4.97;;;4.20;;
26478;SDS011;14163;-26.142;27.992;2022-12-08T01:56:40;4.57;;;4.27;;
26478;SDS011;14163;-26.142;27.992;2022-12-08T01:59:12;4.50;;;4.10;;
26478;SDS011;14163;-26.142;27.992;2022-12-08T02:01:42;4.77;;;4.37;;
26478;SDS011;14163;-26.142;27.992;2022-12-08T02:04:12;4.30;;;4.00;;
26478;SDS011;14163;-26.142;27.992;2022-12-08T02:06:42;5.17;;;4.70;;
26478;SDS011;14163;-26.142;27.992;2022-12-08T02:09:13;4.43;;;4.13;;
26478;SDS011;14163;-26.142;27.992;2022-12-08T02:11:43;4.97;;;4.47;;
26478;SDS011;14163;-26.142;27.992;2022-12-08T02:14:12;4.30;;;4.00;;
26478;SDS011;14163;-26.142;27.992;2022-12-08T02:16:43;4.80;;;4.47;;
26478;SDS011;14163;-26.142;27.992;2022-12-08T02:22:21;4.37;;;4.07;;
26478;SDS011;14163;-26.142;27.992;2022-12-08T02:24:58;5.13;;;4.37;;
26478;SDS011;14163;-26.142;27.992;2022-12-08T02:27:40;4.57;;;4.27;;
26478;SDS011;14163;-26.142;27.992;2022-12-08T02:30:23;5.17;;;4.67;;
26478;SDS011;14163;-26.142;27.992;2022-12-08T02:36:03;5.17;;;4.77;;
26478;SDS011;14163;-26.142;27.992;2022-12-08T02:38:42;4.70;;;4.40;;
26478;SDS011;14163;-26.142;27.992;2022-12-08T02:41:17;4.40;;;4.10;;
26478;SDS011;14163;-26.142;27.992;2022-12-08T02:43:56;5.00;;;4.60;;
26478;SDS011;14163;-26.142;27.992;2022-12-08T02:46:31;4.43;;;4.13;;
26478;SDS011;14163;-26.142;27.992;2022-12-08T02:49:04;3.93;;;3.63;;
26478;SDS011;14163;-26.142;27.992;2022-12-08T02:51:36;7.53;;;4.63;;
26478;SDS011;14163;-26.142;27.992;2022-12-08T02:54:05;5.53;;;3.80;;
26478;SDS011;14163;-26.142;27.992;2022-12-08T02:56:37;4.00;;;3.80;;
26478;SDS011;14163;-26.142;27.992;2022-12-08T02:59:29;3.87;;;3.57;;
26478;SDS011;14163;-26.142;27.992;2022-12-08T03:02:21;3.93;;;3.60;;
26478;SDS011;14163;-26.142;27.992;2022-12-08T03:05:02;4.00;;;3.80;;
26478;SDS011;14163;-26.142;27.992;2022-12-08T03:07:43;4.40;;;4.10;;
26478;SDS011;14163;-26.142;27.992;2022-12-08T03:10:20;3.77;;;3.53;;
26478;SDS011;14163;-26.142;27.992;2022-12-08T03:12:55;3.57;;;3.27;;
26478;SDS011;14163;-26.142;27.992;2022-12-08T03:15:28;3.83;;;3.30;;
26478;SDS011;14163;-26.142;27.992;2022-12-08T03:17:59;3.93;;;3.53;;
26478;SDS011;14163;-26.142;27.992;2022-12-08T03:20:29;4.10;;;3.80;;
26478;SDS011;14163;-26.142;27.992;2022-12-08T03:23:02;4.30;;;3.70;;
26478;SDS011;14163;-26.142;27.992;2022-12-08T03:25:35;4.00;;;3.70;;
26478;SDS011;14163;-26.142;27.992;2022-12-08T03:28:10;4.33;;;4.03;;
26478;SDS011;14163;-26.142;27.992;2022-12-08T03:30:39;4.30;;;4.00;;
26478;SDS011;14163;-26.142;27.992;2022-12-08T03:33:12;4.87;;;4.43;;
26478;SDS011;14163;-26.142;27.992;2022-12-08T03:35:46;4.20;;;3.80;;
26478;SDS011;14163;-26.142;27.992;2022-12-08T03:38:17;4.20;;;3.90;;
26478;SDS011;14163;-26.142;27.992;2022-12-08T03:40:46;4.40;;;4.00;;
26478;SDS011;14163;-26.142;27.992;2022-12-08T03:43:36;4.07;;;3.77;;
26478;SDS011;14163;-26.142;27.992;2022-12-08T03:46:05;4.30;;;4.00;;
26478;SDS011;14163;-26.142;27.992;2022-12-08T03:48:34;4.57;;;4.17;;
26478;SDS011;14163;-26.142;27.992;2022-12-08T03:51:03;4.37;;;3.97;;
26478;SDS011;14163;-26.142;27.992;2022-12-08T03:53:34;3.93;;;3.63;;
26478;SDS011;14163;-26.142;27.992;2022-12-08T03:56:03;4.40;;;4.10;;
26478;SDS011;14163;-26.142;27.992;2022-12-08T03:58:40;4.90;;;4.50;;
26478;SDS011;14163;-26.142;27.992;2022-12-08T04:01:09;4.40;;;4.10;;
26478;SDS011;14163;-26.142;27.992;2022-12-08T04:03:38;4.20;;;3.83;;
26478;SDS011;14163;-26.142;27.992;2022-12-08T04:06:08;3.80;;;3.60;;
26478;SDS011;14163;-26.142;27.992;2022-12-08T04:08:39;4.50;;;3.67;;
26478;SDS011;14163;-26.142;27.992;2022-12-08T04:11:09;4.30;;;4.00;;
26478;SDS011;14163;-26.142;27.992;2022-12-08T04:13:38;6.40;;;4.50;;
26478;SDS011;14163;-26.142;27.992;2022-12-08T04:16:12;5.50;;;4.07;;
26478;SDS011;14163;-26.142;27.992;2022-12-08T04:18:43;4.90;;;4.50;;
26478;SDS011;14163;-26.142;27.992;2022-12-08T04:21:13;4.53;;;4.13;;
26478;SDS011;14163;-26.142;27.992;2022-12-08T04:23:44;4.37;;;4.00;;
26478;SDS011;14163;-26.142;27.992;2022-12-08T04:26:13;4.67;;;4.13;;
26478;SDS011;14163;-26.142;27.992;2022-12-08T04:28:43;3.80;;;3.50;;
26478;SDS011;14163;-26.142;27.992;2022-12-08T04:31:12;3.80;;;3.50;;
26478;SDS011;14163;-26.142;27.992;2022-12-08T04:33:41;3.63;;;3.33;;
26478;SDS011;14163;-26.142;27.992;2022-12-08T04:36:11;3.60;;;3.40;;
26478;SDS011;14163;-26.142;27.992;2022-12-08T04:38:40;3.90;;;3.70;;
26478;SDS011;14163;-26.142;27.992;2022-12-08T04:41:11;3.93;;;3.63;;
26478;SDS011;14163;-26.142;27.992;2022-12-08T04:43:40;5.00;;;3.87;;
26478;SDS011;14163;-26.142;27.992;2022-12-08T04:46:10;4.50;;;4.10;;
26478;SDS011;14163;-26.142;27.992;2022-12-08T04:48:39;4.77;;;4.33;;
26478;SDS011;14163;-26.142;27.992;2022-12-08T04:51:11;4.50;;;4.20;;
26478;SDS011;14163;-26.142;27.992;2022-12-08T04:53:43;4.30;;;3.90;;
26478;SDS011;14163;-26.142;27.992;2022-12-08T04:56:15;3.80;;;3.60;;
26478;SDS011;14163;-26.142;27.992;2022-12-08T04:58:45;3.77;;;3.47;;
26478;SDS011;14163;-26.142;27.992;2022-12-08T05:01:14;3.77;;;3.30;;
26478;SDS011;14163;-26.142;27.992;2022-12-08T05:03:43;4.07;;;3.77;;
26478;SDS011;14163;-26.142;27.992;2022-12-08T05:06:12;3.70;;;3.40;;
26478;SDS011;14163;-26.142;27.992;2022-12-08T05:08:42;4.17;;;3.50;;
26478;SDS011;14163;-26.142;27.992;2022-12-08T05:11:11;3.63;;;3.33;;
26478;SDS011;14163;-26.142;27.992;2022-12-08T05:13:42;2.73;;;2.60;;
26478;SDS011;14163;-26.142;27.992;2022-12-08T05:16:12;4.10;;;3.80;;
26478;SDS011;14163;-26.142;27.992;2022-12-08T05:18:41;3.73;;;3.40;;
26478;SDS011;14163;-26.142;27.992;2022-12-08T05:21:11;3.60;;;3.40;;
26478;SDS011;14163;-26.142;27.992;2022-12-08T05:23:40;3.60;;;3.37;;
26478;SDS011;14163;-26.142;27.992;2022-12-08T05:26:09;2.90;;;2.70;;
26478;SDS011;14163;-26.142;27.992;2022-12-08T05:28:40;3.80;;;3.50;;
26478;SDS011;14163;-26.142;27.992;2022-12-08T05:31:09;3.80;;;2.57;;
26478;SDS011;14163;-26.142;27.992;2022-12-08T05:33:39;5.70;;;2.83;;
26478;SDS011;14163;-26.142;27.992;2022-12-08T05:36:09;4.27;;;2.40;;
26478;SDS011;14163;-26.142;27.992;2022-12-08T05:38:40;2.73;;;2.53;;
26478;SDS011;14163;-26.142;27.992;2022-12-08T05:41:11;3.23;;;3.03;;
26478;SDS011;14163;-26.142;27.992;2022-12-08T05:43:44;3.80;;;2.80;;
26478;SDS011;14163;-26.142;27.992;2022-12-08T05:46:13;3.73;;;3.20;;
26478;SDS011;14163;-26.142;27.992;2022-12-08T05:48:43;3.13;;;2.93;;
26478;SDS011;14163;-26.142;27.992;2022-12-08T05:51:15;3.23;;;3.13;;
26478;SDS011;14163;-26.142;27.992;2022-12-08T05:53:46;3.67;;;3.37;;
26478;SDS011;14163;-26.142;27.992;2022-12-08T05:56:16;3.43;;;3.23;;
26478;SDS011;14163;-26.142;27.992;2022-12-08T05:58:47;4.20;;;3.80;;
26478;SDS011;14163;-26.142;27.992;2022-12-08T06:01:17;4.53;;;4.23;;
26478;SDS011;14163;-26.142;27.992;2022-12-08T06:03:48;5.07;;;4.67;;
26478;SDS011;14163;-26.142;27.992;2022-12-08T06:06:17;4.40;;;4.03;;
26478;SDS011;14163;-26.142;27.992;2022-12-08T06:08:47;4.73;;;4.33;;
26478;SDS011;14163;-26.142;27.992;2022-12-08T06:11:17;4.53;;;4.23;;
26478;SDS011;14163;-26.142;27.992;2022-12-08T06:13:48;4.67;;;4.27;;
26478;SDS011;14163;-26.142;27.992;2022-12-08T06:16:18;4.40;;;4.00;;
26478;SDS011;14163;-26.142;27.992;2022-12-08T06:18:47;8.97;;;5.27;;
26478;SDS011;14163;-26.142;27.992;2022-12-08T06:21:16;4.50;;;4.10;;
26478;SDS011;14163;-26.142;27.992;2022-12-08T06:23:47;8.80;;;4.20;;
26478;SDS011;14163;-26.142;27.992;2022-12-08T06:26:17;5.30;;;4.70;;
26478;SDS011;14163;-26.142;27.992;2022-12-08T06:28:48;4.00;;;3.70;;
26478;SDS011;14163;-26.142;27.992;2022-12-08T06:31:19;4.00;;;3.80;;
26478;SDS011;14163;-26.142;27.992;2022-12-08T06:33:49;4.70;;;4.40;;
26478;SDS011;14163;-26.142;27.992;2022-12-08T06:36:19;4.17;;;3.83;;
26478;SDS011;14163;-26.142;27.992;2022-12-08T06:38:49;4.43;;;4.03;;
26478;SDS011;14163;-26.142;27.992;2022-12-08T06:41:19;5.07;;;4.60;;
26478;SDS011;14163;-26.142;27.992;2022-12-08T06:43:50;4.10;;;3.80;;
26478;SDS011;14163;-26.142;27.992;2022-12-08T06:46:22;5.10;;;4.70;;
26478;SDS011;14163;-26.142;27.992;2022-12-08T06:48:51;4.83;;;4.43;;
26478;SDS011;14163;-26.142;27.992;2022-12-08T06:51:20;4.87;;;4.57;;
26478;SDS011;14163;-26.142;27.992;2022-12-08T06:53:49;5.93;;;4.37;;
26478;SDS011;14163;-26.142;27.992;2022-12-08T06:56:18;5.00;;;4.60;;
26478;SDS011;14163;-26.142;27.992;2022-12-08T06:58:54;4.80;;;4.50;;
26478;SDS011;14163;-26.142;27.992;2022-12-08T07:01:23;4.40;;;4.10;;
26478;SDS011;14163;-26.142;27.992;2022-12-08T07:03:52;4.93;;;4.50;;
26478;SDS011;14163;-26.142;27.992;2022-12-08T07:06:22;5.70;;;4.63;;
26478;SDS011;14163;-26.142;27.992;2022-12-08T07:08:51;4.60;;;4.20;;
26478;SDS011;14163;-26.142;27.992;2022-12-08T07:11:20;3.90;;;3.60;;
26478;SDS011;14163;-26.142;27.992;2022-12-08T07:13:50;4.13;;;3.80;;
26478;SDS011;14163;-26.142;27.992;2022-12-08T07:16:21;4.77;;;4.37;;
26478;SDS011;14163;-26.142;27.992;2022-12-08T07:18:50;5.27;;;4.77;;
26478;SDS011;14163;-26.142;27.992;2022-12-08T07:21:19;4.47;;;4.17;;
26478;SDS011;14163;-26.142;27.992;2022-12-08T07:23:48;5.03;;;4.60;;
26478;SDS011;14163;-26.142;27.992;2022-12-08T07:26:17;4.30;;;4.10;;
26478;SDS011;14163;-26.142;27.992;2022-12-08T07:28:46;3.90;;;3.60;;
26478;SDS011;14163;-26.142;27.992;2022-12-08T07:31:16;4.97;;;4.37;;
26478;SDS011;14163;-26.142;27.992;2022-12-08T07:33:48;4.30;;;4.00;;
26478;SDS011;14163;-26.142;27.992;2022-12-08T07:36:18;4.70;;;4.33;;
26478;SDS011;14163;-26.142;27.992;2022-12-08T07:38:47;3.80;;;3.60;;
26478;SDS011;14163;-26.142;27.992;2022-12-08T07:41:18;4.47;;;4.17;;
26478;SDS011;14163;-26.142;27.992;2022-12-08T07:43:48;4.40;;;4.10;;
26478;SDS011;14163;-26.142;27.992;2022-12-08T07:46:18;5.00;;;4.60;;
26478;SDS011;14163;-26.142;27.992;2022-12-08T07:48:50;3.90;;;3.60;;
26478;SDS011;14163;-26.142;27.992;2022-12-08T07:51:19;3.73;;;3.53;;
26478;SDS011;14163;-26.142;27.992;2022-12-08T07:53:49;4.57;;;4.20;;
26478;SDS011;14163;-26.142;27.992;2022-12-08T07:56:19;4.10;;;3.90;;
26478;SDS011;14163;-26.142;27.992;2022-12-08T07:58:48;5.00;;;4.60;;
26478;SDS011;14163;-26.142;27.992;2022-12-08T08:01:18;4.30;;;4.00;;
26478;SDS011;14163;-26.142;27.992;2022-12-08T08:03:51;5.80;;;4.27;;
26478;SDS011;14163;-26.142;27.992;2022-12-08T08:06:20;3.67;;;3.47;;
26478;SDS011;14163;-26.142;27.992;2022-12-08T08:08:50;4.57;;;4.27;;
26478;SDS011;14163;-26.142;27.992;2022-12-08T08:11:19;4.17;;;3.80;;
26478;SDS011;14163;-26.142;27.992;2022-12-08T08:13:49;4.60;;;4.27;;
26478;SDS011;14163;-26.142;27.992;2022-12-08T08:16:18;4.00;;;3.80;;
26478;SDS011;14163;-26.142;27.992;2022-12-08T08:18:48;3.60;;;3.37;;
26478;SDS011;14163;-26.142;27.992;2022-12-08T08:21:19;3.70;;;3.40;;
26478;SDS011;14163;-26.142;27.992;2022-12-08T08:23:48;3.33;;;3.13;;
26478;SDS011;14163;-26.142;27.992;2022-12-08T08:26:17;9.10;;;8.40;;
26478;SDS011;14163;-26.142;27.992;2022-12-08T08:28:47;9.40;;;6.00;;
26478;SDS011;14163;-26.142;27.992;2022-12-08T08:31:16;8.53;;;7.90;;
26478;SDS011;14163;-26.142;27.992;2022-12-08T08:33:45;6.80;;;6.30;;
26478;SDS011;14163;-26.142;27.992;2022-12-08T08:36:16;4.90;;;4.70;;
26478;SDS011;14163;-26.142;27.992;2022-12-08T08:38:46;5.40;;;4.70;;
26478;SDS011;14163;-26.142;27.992;2022-12-08T08:41:15;4.53;;;4.23;;
26478;SDS011;14163;-26.142;27.992;2022-12-08T08:43:44;4.40;;;3.80;;
26478;SDS011;14163;-26.142;27.992;2022-12-08T08:46:13;4.13;;;3.93;;
26478;SDS011;14163;-26.142;27.992;2022-12-08T08:48:42;3.77;;;3.47;;
26478;SDS011;14163;-26.142;27.992;2022-12-08T08:51:12;3.53;;;3.33;;
26478;SDS011;14163;-26.142;27.992;2022-12-08T08:53:43;3.03;;;2.90;;
26478;SDS011;14163;-26.142;27.992;2022-12-08T08:56:13;2.50;;;2.30;;
26478;SDS011;14163;-26.142;27.992;2022-12-08T08:58:45;2.90;;;2.70;;
26478;SDS011;14163;-26.142;27.992;2022-12-08T09:01:15;2.87;;;2.70;;
26478;SDS011;14163;-26.142;27.992;2022-12-08T09:03:45;3.43;;;3.13;;
26478;SDS011;14163;-26.142;27.992;2022-12-08T09:06:17;4.37;;;4.03;;
26478;SDS011;14163;-26.142;27.992;2022-12-08T09:08:46;4.80;;;3.07;;
26478;SDS011;14163;-26.142;27.992;2022-12-08T09:11:15;4.83;;;4.00;;
26478;SDS011;14163;-26.142;27.992;2022-12-08T09:13:46;3.53;;;3.33;;
26478;SDS011;14163;-26.142;27.992;2022-12-08T09:16:15;3.60;;;3.30;;
26478;SDS011;14163;-26.142;27.992;2022-12-08T09:18:45;3.70;;;3.50;;
26478;SDS011;14163;-26.142;27.992;2022-12-08T09:21:16;3.83;;;3.53;;
26478;SDS011;14163;-26.142;27.992;2022-12-08T09:23:47;3.50;;;3.20;;
26478;SDS011;14163;-26.142;27.992;2022-12-08T09:26:16;3.93;;;3.40;;
26478;SDS011;14163;-26.142;27.992;2022-12-08T09:28:47;3.23;;;3.07;;
26478;SDS011;14163;-26.142;27.992;2022-12-08T09:31:16;4.67;;;4.03;;
26478;SDS011;14163;-26.142;27.992;2022-12-08T09:33:46;4.07;;;3.70;;
26478;SDS011;14163;-26.142;27.992;2022-12-08T09:36:18;4.33;;;3.97;;
26478;SDS011;14163;-26.142;27.992;2022-12-08T09:38:48;4.97;;;4.57;;
26478;SDS011;14163;-26.142;27.992;2022-12-08T09:41:19;4.53;;;4.13;;
26478;SDS011;14163;-26.142;27.992;2022-12-08T09:43:58;6.57;;;4.17;;
26478;SDS011;14163;-26.142;27.992;2022-12-08T09:46:35;5.10;;;3.93;;
26478;SDS011;14163;-26.142;27.992;2022-12-08T09:49:08;4.63;;;4.33;;
26478;SDS011;14163;-26.142;27.992;2022-12-08T09:51:44;4.30;;;4.00;;
26478;SDS011;14163;-26.142;27.992;2022-12-08T09:54:14;5.10;;;4.70;;
26478;SDS011;14163;-26.142;27.992;2022-12-08T09:56:46;6.50;;;5.90;;
26478;SDS011;14163;-26.142;27.992;2022-12-08T09:59:21;6.00;;;5.40;;
26478;SDS011;14163;-26.142;27.992;2022-12-08T10:01:52;6.07;;;5.57;;
26478;SDS011;14163;-26.142;27.992;2022-12-08T10:04:23;4.10;;;3.90;;
26478;SDS011;14163;-26.142;27.992;2022-12-08T10:07:02;3.70;;;3.50;;
26478;SDS011;14163;-26.142;27.992;2022-12-08T10:09:40;4.17;;;3.80;;
26478;SDS011;14163;-26.142;27.992;2022-12-08T10:12:13;4.40;;;4.03;;
26478;SDS011;14163;-26.142;27.992;2022-12-08T10:14:50;4.23;;;3.87;;
26478;SDS011;14163;-26.142;27.992;2022-12-08T10:17:29;4.20;;;3.80;;
26478;SDS011;14163;-26.142;27.992;2022-12-08T10:20:05;4.63;;;4.10;;
26478;SDS011;14163;-26.142;27.992;2022-12-08T10:22:41;3.13;;;2.93;;
26478;SDS011;14163;-26.142;27.992;2022-12-08T10:25:11;2.50;;;2.40;;
26478;SDS011;14163;-26.142;27.992;2022-12-08T10:27:44;2.63;;;2.53;;
26478;SDS011;14163;-26.142;27.992;2022-12-08T10:30:16;2.87;;;2.73;;
26478;SDS011;14163;-26.142;27.992;2022-12-08T10:32:49;3.00;;;2.80;;
26478;SDS011;14163;-26.142;27.992;2022-12-08T10:35:20;4.13;;;3.83;;
26478;SDS011;14163;-26.142;27.992;2022-12-08T10:37:58;3.77;;;3.57;;
26478;SDS011;14163;-26.142;27.992;2022-12-08T10:40:34;4.10;;;3.20;;
26478;SDS011;14163;-26.142;27.992;2022-12-08T10:43:03;3.37;;;3.27;;
26478;SDS011;14163;-26.142;27.992;2022-12-08T10:45:35;3.87;;;3.60;;
26478;SDS011;14163;-26.142;27.992;2022-12-08T10:48:13;3.30;;;3.10;;
26478;SDS011;14163;-26.142;27.992;2022-12-08T10:50:44;3.10;;;3.00;;
26478;SDS011;14163;-26.142;27.992;2022-12-08T10:53:19;4.50;;;3.90;;
26478;SDS011;14163;-26.142;27.992;2022-12-08T10:55:50;4.20;;;3.90;;
26478;SDS011;14163;-26.142;27.992;2022-12-08T10:58:32;3.03;;;2.93;;
26478;SDS011;14163;-26.142;27.992;2022-12-08T11:01:05;4.20;;;3.47;;
26478;SDS011;14163;-26.142;27.992;2022-12-08T11:03:40;3.70;;;3.40;;
26478;SDS011;14163;-26.142;27.992;2022-12-08T11:06:14;3.00;;;2.80;;
26478;SDS011;14163;-26.142;27.992;2022-12-08T11:08:47;2.90;;;2.70;;
26478;SDS011;14163;-26.142;27.992;2022-12-08T11:11:19;2.77;;;2.50;;
26478;SDS011;14163;-26.142;27.992;2022-12-08T11:13:49;3.20;;;3.00;;
26478;SDS011;14163;-26.142;27.992;2022-12-08T11:16:18;4.23;;;3.70;;
26478;SDS011;14163;-26.142;27.992;2022-12-08T11:18:54;4.13;;;3.73;;
26478;SDS011;14163;-26.142;27.992;2022-12-08T11:21:31;3.17;;;3.07;;
26478;SDS011;14163;-26.142;27.992;2022-12-08T11:24:16;2.77;;;2.57;;
26478;SDS011;14163;-26.142;27.992;2022-12-08T11:26:49;3.57;;;3.33;;
26478;SDS011;14163;-26.142;27.992;2022-12-08T11:29:21;4.30;;;3.03;;
26478;SDS011;14163;-26.142;27.992;2022-12-08T11:31:51;3.70;;;3.40;;
26478;SDS011;14163;-26.142;27.992;2022-12-08T11:34:29;3.70;;;3.50;;
26478;SDS011;14163;-26.142;27.992;2022-12-08T11:37:03;3.07;;;2.97;;
26478;SDS011;14163;-26.142;27.992;2022-12-08T11:39:44;4.77;;;3.50;;
26478;SDS011;14163;-26.142;27.992;2022-12-08T11:42:16;6.10;;;3.87;;
26478;SDS011;14163;-26.142;27.992;2022-12-08T11:44:51;6.60;;;4.30;;
26478;SDS011;14163;-26.142;27.992;2022-12-08T11:47:24;3.30;;;3.10;;
26478;SDS011;14163;-26.142;27.992;2022-12-08T11:50:00;4.07;;;3.70;;
26478;SDS011;14163;-26.142;27.992;2022-12-08T11:52:39;4.77;;;4.37;;
26478;SDS011;14163;-26.142;27.992;2022-12-08T11:55:17;3.67;;;3.40;;
26478;SDS011;14163;-26.142;27.992;2022-12-08T11:57:56;3.53;;;3.33;;
26478;SDS011;14163;-26.142;27.992;2022-12-08T12:00:29;3.70;;;3.50;;
26478;SDS011;14163;-26.142;27.992;2022-12-08T12:03:00;6.83;;;4.10;;
26478;SDS011;14163;-26.142;27.992;2022-12-08T12:05:39;4.90;;;3.33;;
26478;SDS011;14163;-26.142;27.992;2022-12-08T12:08:22;4.63;;;4.23;;
26478;SDS011;14163;-26.142;27.992;2022-12-08T12:11:09;3.63;;;3.43;;
26478;SDS011;14163;-26.142;27.992;2022-12-08T12:14:10;3.77;;;3.53;;
26478;SDS011;14163;-26.142;27.992;2022-12-08T12:16:58;4.70;;;4.30;;
26478;SDS011;14163;-26.142;27.992;2022-12-08T12:19:32;4.10;;;3.87;;
26478;SDS011;14163;-26.142;27.992;2022-12-08T12:22:09;3.77;;;3.57;;
26478;SDS011;14163;-26.142;27.992;2022-12-08T12:24:42;3.47;;;3.23;;
26478;SDS011;14163;-26.142;27.992;2022-12-08T12:27:22;3.90;;;3.60;;
26478;SDS011;14163;-26.142;27.992;2022-12-08T12:29:55;4.53;;;3.37;;
26478;SDS011;14163;-26.142;27.992;2022-12-08T12:32:26;3.33;;;3.13;;
26478;SDS011;14163;-26.142;27.992;2022-12-08T12:35:13;3.63;;;3.40;;
26478;SDS011;14163;-26.142;27.992;2022-12-08T12:37:45;3.10;;;2.90;;
26478;SDS011;14163;-26.142;27.992;2022-12-08T12:40:17;4.10;;;3.70;;
26478;SDS011;14163;-26.142;27.992;2022-12-08T12:45:50;3.40;;;3.10;;
26478;SDS011;14163;-26.142;27.992;2022-12-08T12:49:34;5.73;;;3.47;;
26478;SDS011;14163;-26.142;27.992;2022-12-08T12:52:38;3.50;;;3.20;;
26478;SDS011;14163;-26.142;27.992;2022-12-08T12:58:32;4.10;;;3.87;;
26478;SDS011;14163;-26.142;27.992;2022-12-08T13:04:12;3.53;;;3.27;;
26478;SDS011;14163;-26.142;27.992;2022-12-08T13:06:42;3.23;;;3.10;;
26478;SDS011;14163;-26.142;27.992;2022-12-08T13:09:25;4.10;;;3.80;;
26478;SDS011;14163;-26.142;27.992;2022-12-08T13:11:58;4.37;;;4.00;;
26478;SDS011;14163;-26.142;27.992;2022-12-08T13:14:37;3.73;;;3.53;;
26478;SDS011;14163;-26.142;27.992;2022-12-08T13:17:15;3.50;;;3.30;;
26478;SDS011;14163;-26.142;27.992;2022-12-08T13:19:51;4.30;;;3.47;;
26478;SDS011;14163;-26.142;27.992;2022-12-08T13:31:46;3.87;;;3.57;;
26478;SDS011;14163;-26.142;27.992;2022-12-08T13:34:18;4.50;;;4.10;;
26478;SDS011;14163;-26.142;27.992;2022-12-08T13:36:56;3.70;;;3.40;;
26478;SDS011;14163;-26.142;27.992;2022-12-08T13:39:32;6.47;;;3.80;;
26478;SDS011;14163;-26.142;27.992;2022-12-08T13:42:12;5.23;;;4.80;;
26478;SDS011;14163;-26.142;27.992;2022-12-08T13:44:51;4.73;;;4.23;;
26478;SDS011;14163;-26.142;27.992;2022-12-08T13:47:27;4.47;;;4.10;;
26478;SDS011;14163;-26.142;27.992;2022-12-08T13:50:00;4.33;;;3.93;;
26478;SDS011;14163;-26.142;27.992;2022-12-08T13:52:33;3.23;;;3.03;;
26478;SDS011;14163;-26.142;27.992;2022-12-08T13:55:05;2.93;;;2.83;;
26478;SDS011;14163;-26.142;27.992;2022-12-08T13:57:44;3.20;;;2.90;;
26478;SDS011;14163;-26.142;27.992;2022-12-08T14:00:17;3.27;;;2.93;;
26478;SDS011;14163;-26.142;27.992;2022-12-08T14:04:37;3.40;;;3.20;;
26478;SDS011;14163;-26.142;27.992;2022-12-08T14:07:12;3.00;;;2.80;;
26478;SDS011;14163;-26.142;27.992;2022-12-08T14:09:42;3.33;;;3.13;;
26478;SDS011;14163;-26.142;27.992;2022-12-08T14:12:16;3.70;;;3.37;;
26478;SDS011;14163;-26.142;27.992;2022-12-08T14:14:47;3.20;;;3.00;;
26478;SDS011;14163;-26.142;27.992;2022-12-08T14:17:18;3.63;;;3.30;;
26478;SDS011;14163;-26.142;27.992;2022-12-08T14:19:54;3.23;;;3.13;;
26478;SDS011;14163;-26.142;27.992;2022-12-08T14:22:30;3.00;;;2.80;;
26478;SDS011;14163;-26.142;27.992;2022-12-08T14:25:00;3.40;;;3.20;;
26478;SDS011;14163;-26.142;27.992;2022-12-08T14:27:31;3.50;;;3.30;;
26478;SDS011;14163;-26.142;27.992;2022-12-08T14:30:02;2.80;;;2.60;;
26478;SDS011;14163;-26.142;27.992;2022-12-08T14:32:36;3.73;;;3.27;;
26478;SDS011;14163;-26.142;27.992;2022-12-08T14:35:16;3.20;;;3.00;;
26478;SDS011;14163;-26.142;27.992;2022-12-08T14:37:47;3.20;;;3.00;;
26478;SDS011;14163;-26.142;27.992;2022-12-08T14:40:21;3.30;;;3.00;;
26478;SDS011;14163;-26.142;27.992;2022-12-08T14:43:02;3.30;;;3.10;;
26478;SDS011;14163;-26.142;27.992;2022-12-08T14:45:45;3.43;;;3.23;;
26478;SDS011;14163;-26.142;27.992;2022-12-08T14:48:19;4.33;;;3.03;;
26478;SDS011;14163;-26.142;27.992;2022-12-08T14:50:59;3.17;;;2.97;;
26478;SDS011;14163;-26.142;27.992;2022-12-08T14:53:36;3.57;;;3.37;;
26478;SDS011;14163;-26.142;27.992;2022-12-08T14:56:07;3.47;;;3.27;;
26478;SDS011;14163;-26.142;27.992;2022-12-08T14:58:44;4.07;;;3.67;;
26478;SDS011;14163;-26.142;27.992;2022-12-08T15:01:14;3.43;;;3.13;;
26478;SDS011;14163;-26.142;27.992;2022-12-08T15:03:47;4.50;;;4.03;;
26478;SDS011;14163;-26.142;27.992;2022-12-08T15:06:19;3.90;;;3.40;;
26478;SDS011;14163;-26.142;27.992;2022-12-08T15:08:49;6.57;;;3.73;;
26478;SDS011;14163;-26.142;27.992;2022-12-08T15:11:30;5.83;;;4.30;;
26478;SDS011;14163;-26.142;27.992;2022-12-08T15:14:01;6.37;;;4.50;;
26478;SDS011;14163;-26.142;27.992;2022-12-08T15:16:36;5.57;;;4.90;;
26478;SDS011;14163;-26.142;27.992;2022-12-08T15:19:16;5.30;;;4.90;;
26478;SDS011;14163;-26.142;27.992;2022-12-08T15:21:54;6.43;;;5.10;;
26478;SDS011;14163;-26.142;27.992;2022-12-08T15:24:24;6.70;;;4.90;;
26478;SDS011;14163;-26.142;27.992;2022-12-08T15:26:56;6.97;;;5.33;;
26478;SDS011;14163;-26.142;27.992;2022-12-08T15:29:26;7.37;;;6.67;;
26478;SDS011;14163;-26.142;27.992;2022-12-08T15:31:56;10.60;;;7.23;;